الصفحة الرئيسية
METAR-TAF:

METAR-TAF

مطار :

تومسك, روسيا

دائرة عرض: 56-23-12N, خط طول: 085-12-38E, ارتفاع: 182 متر

مراقبة الطقس الحالي

تاريخ ووقت الإصدار 23 دقيقة قبل الساعة 22:30UTC
رياح هادئة
درجة الحرارة 7°درجة مئوية
الرطوبة 93%
ضغط 1016 hPa
الرؤية 10 كم أو أكثر
غيوم قليلة على ارتفاع 4500 قدم
الضباب الضحلة

METAR: UNTT 152230Z 00000MPS 9999 MIFG FEW045 07/06 Q1016 R21/090060 NOSIG RMK QFE747

زمن: 05:53 (22:53 UTC)

توقعات

تاريخ ووقت الإصدار 2ساعات و 53 دقيقة قبل الساعة 20:00UTC
التوقعات صالحة من15 الساعة 21 UTC إلى 16 الساعة 06 UTC
ريح 6 عقدة من الجنوب/الجنوب الشرقي
الرؤية 10 كم أو أكثر
غيوم متفرقة على ارتفاع 3000 قدم
مؤقت
من 15 الساعة 21 UTC إلى 16 الساعة 01 UTC
الرؤية: 0500 متر
غيوم متفرقة على ارتفاع 300 قدم
ضباب
مؤقت
من 16 الساعة 01 UTC إلى 16 الساعة 03 UTC
الرؤية: 3100 متر
غيوم متفرقة على ارتفاع 1100 قدم
غشاء

TAF: UNTT 152000Z 1521/1606 16003MPS 9999 SCT030 TEMPO 1521/1601 0500 FG SCT003 TEMPO 1601/1603 3100 BR SCT011

أرصاد الطقس والتوقعات من أكثر من 4000 مطار (تقارير الطقس للمطار METAR والتنبؤ بالطقس بالمطارTAF).

المحطات المتاحة هي النقط الصفراء والحمراء على الخريطة.

حرك المؤشر فوق النقطة لمعرفة اسم المحطة.

ثم انقر لمعرفة أرصاد وتوقعات الطقس.

لتغيير الخارطة: اضغط على الأزرار الخضراء مع رمز الصليب الأسود للتكبير. على الزر الأخضر مع شرطة للتصغير، أو على الأسهم الخضراء للخرائط المجاورة.


METAR-TAF: